Nearby METAR Reports

 

KBAX - Bad Axe, Michigan, USA
Distance from station: ESE 22mi, 35km
Updated: Wed, 24-Apr-2019 1:35pm EDT
Clear
Clear
 Wind from N
Wind: N 7 mph , 11 km/h
Temperature: 50°F , 10°C
Wind Chill: 47°F , 8°C
Dew Point: 34°F , 1°C
Humidity: 54%
Barometer: 29.99 inHg , 1015.6 hPa
Clouds: Clear
Visibility: 10 miles , 16 km
2019/04/24 17:35 KBAX 241735Z AUTO 01006KT 10SM CLR 10/01 A2999 RMK AO2 T01030008
KFNT - Flint, Michigan, USA
Distance from station: SSW 68mi, 109km
Updated: Wed, 24-Apr-2019 12:53pm EDT
Clear
Clear
 Wind from N
Wind: N 6 mph , 9 km/h
Temperature: 57°F , 14°C
Dew Point: 28°F , -2°C
Humidity: 33%
Barometer: 30.01 inHg , 1016.3 hPa
Clouds: Clear
Visibility: 10 miles , 16 km
2019/04/24 16:53 KFNT 241653Z 01005KT 10SM CLR 14/M02 A3001 RMK AO2 SLP166 T01391022
KMBS - Saginaw, Michigan, USA
Distance from station: SW 44mi, 70km
Updated: Wed, 24-Apr-2019 12:53pm EDT
Clear
Clear
 Wind from calm
Wind: Calm
Temperature: 52°F , 11°C
Dew Point: 32°F , 0°C
Humidity: 47%
Barometer: 30.01 inHg , 1016.3 hPa
Clouds: Clear
Visibility: 10 miles , 16 km
2019/04/24 16:53 KMBS 241653Z 00000KT 10SM CLR 11/00 A3001 RMK AO2 SLP166 T01110000
 
KDTW - Detroit/Wayne, Michigan, USA
Distance from station: SSE 117mi, 188km
Updated: Wed, 24-Apr-2019 12:53pm EDT
Mostly cloudy
Mostly cloudy
 Wind from varies
Wind: varies 6 mph , 9 km/h
Temperature: 55°F , 13°C
Dew Point: 36°F , 2°C
Humidity: 47%
Barometer: 30.01 inHg , 1016.3 hPa
Clouds: Mostly cloudy
Visibility: 10 miles , 16 km
Cloud details: Mostly cloudy 25000 ft
2019/04/24 16:53 KDTW 241653Z VRB05KT 10SM BKN250 13/02 A3001 RMK AO2 SLP165 T01330017
KP58 - Port Hope, Michigan, USA
Distance from station: ENE 30mi, 48km
Updated: Wed, 24-Apr-2019 1:51pm EDT

 Wind from calm
Wind: Calm
Temperature: 45°F , 7°C
Dew Point: 34°F , 1°C
Humidity: 66%
Barometer: 29.99 inHg , 1015.6 hPa
2019/04/24 17:51 KP58 241751Z AUTO 00000KT 07/01 A2999 RMK AO1 SLP160 T00720006 10078 20050 58012
KCFS - Caro/Tuscola, Michigan, USA
Distance from station: S 31mi, 50km
Updated: Wed, 24-Apr-2019 1:36pm EDT
Clear
Clear
 Wind from W
Wind: W 3 mph , 6 km/h
Temperature: 54°F , 12°C
Dew Point: 30°F , -1°C
Humidity: 41%
Barometer: 29.99 inHg , 1015.6 hPa
Clouds: Clear
Visibility: 10 miles , 16 km
2019/04/24 17:36 KCFS 241736Z AUTO 27003KT 10SM CLR 12/M01 A2999 RMK AO2 T01221007
 
KPHN - Port Huron, Michigan, USA
Distance from station: SSE 81mi, 131km
Updated: Wed, 24-Apr-2019 1:38pm EDT
Clear
Clear
 Wind from calm
Wind: Calm
Temperature: 57°F , 14°C
Dew Point: 30°F , -1°C
Humidity: 36%
Barometer: 29.99 inHg , 1015.6 hPa
Clouds: Clear
Visibility: 10 miles , 16 km
2019/04/24 17:38 KPHN 241738Z AUTO 00000KT 10SM CLR 14/M01 A2999 RMK AO2
KPTK - Pontiac, Michigan, USA
Distance from station: S 86mi, 138km
Updated: Wed, 24-Apr-2019 12:53pm EDT
Mostly cloudy
Mostly cloudy
 Wind from calm
Wind: Calm
Temperature: 55°F , 13°C
Dew Point: 32°F , 0°C
Humidity: 41%
Barometer: 29.99 inHg , 1015.6 hPa
Clouds: Mostly cloudy
Visibility: 10 miles , 16 km
Cloud details: Few Clouds 20000 ft
Mostly cloudy 24000 ft
2019/04/24 16:53 KPTK 241653Z 00000KT 10SM FEW200 BKN240 13/00 A2999 RMK AO2 SLP157 T01330000
KMTC - Selfridge Angb, Michigan, USA
Distance from station: SSE 94mi, 151km
Updated: Wed, 24-Apr-2019 12:56pm EDT
Few Clouds
Few Clouds
 Wind from SSE
Wind: SSE 7 mph , 11 km/h
Temperature: 54°F , 12°C
Dew Point: 39°F , 4°C
Humidity: 58%
Barometer: 30.00 inHg , 1015.9 hPa
Clouds: Few Clouds
Visibility: 10 miles , 16 km
Cloud details: Few Clouds 25000 ft
2019/04/24 16:56 KMTC 241656Z 16006KT 10SM FEW250 12/04 A3000 RMK AO2A SLP166 T01200035 $